createdAt,value
2023-03-03T00:02:42.752Z,100503.66
2023-03-03T00:07:45.575Z,100506.06
2023-03-03T00:12:49.647Z,100471.75
2023-03-03T00:17:51.824Z,100518.63
2023-03-03T00:22:53.400Z,100521.47
2023-03-03T00:27:54.732Z,100526.91
2023-03-03T00:32:56.218Z,100519.53
2023-03-03T00:38:00.454Z,100538.75
2023-03-03T00:43:12.205Z,100540.34
2023-03-03T00:48:22.771Z,100537.94
2023-03-03T00:53:30.014Z,100539.47
2023-03-03T00:58:31.541Z,100541.50
2023-03-03T01:03:32.980Z,100531.47
2023-03-03T01:08:34.374Z,100542.53
2023-03-03T01:13:38.183Z,100532.56
2023-03-03T01:18:41.722Z,100544.75
2023-03-03T01:23:43.625Z,100534.69
2023-03-03T01:28:44.961Z,100537.50
2023-03-03T01:33:46.641Z,100536.38
2023-03-03T01:38:47.978Z,100541.00
2023-03-03T01:43:50.421Z,100541.16
2023-03-03T01:48:58.316Z,100527.16
2023-03-03T01:54:03.293Z,100532.78
2023-03-03T01:59:12.524Z,100525.81
2023-03-03T02:04:15.223Z,100502.94
2023-03-03T02:09:44.267Z,100524.28
2023-03-03T02:14:45.968Z,100515.66
2023-03-03T02:20:07.780Z,100529.38
2023-03-03T02:25:14.970Z,100531.22
2023-03-03T02:30:20.057Z,100528.75
2023-03-03T02:35:33.693Z,100528.00
2023-03-03T02:40:40.923Z,100528.66
2023-03-03T02:45:44.299Z,100511.88
2023-03-03T02:50:45.692Z,100537.16
2023-03-03T02:55:47.230Z,100536.13
2023-03-03T03:00:49.077Z,100530.72
2023-03-03T03:05:50.730Z,100545.31
2023-03-03T03:10:52.274Z,100535.06
2023-03-03T03:15:54.183Z,100542.38
2023-03-03T03:20:55.544Z,100541.78
2023-03-03T03:25:56.861Z,100538.41
2023-03-03T03:30:58.572Z,100546.41
2023-03-03T03:36:00.128Z,100545.41
2023-03-03T03:41:01.686Z,100550.59
2023-03-03T03:46:03.374Z,100553.78
2023-03-03T03:51:05.141Z,100563.34
2023-03-03T03:56:07.325Z,100555.66
2023-03-03T04:01:09.106Z,100560.22
2023-03-03T04:06:10.507Z,100561.00
2023-03-03T04:11:12.033Z,100559.38
2023-03-03T04:16:13.521Z,100571.69
2023-03-03T04:21:15.764Z,100553.84
2023-03-03T04:26:17.228Z,100565.25
2023-03-03T04:31:20.429Z,100570.03
2023-03-03T04:36:22.171Z,100564.22
2023-03-03T04:41:23.603Z,100566.22
2023-03-03T04:46:25.324Z,100573.41
2023-03-03T04:51:26.842Z,100581.53
2023-03-03T04:56:31.384Z,100576.44
2023-03-03T05:01:33.033Z,100573.28
2023-03-03T05:06:34.657Z,100589.09
2023-03-03T05:11:36.395Z,100588.09
2023-03-03T05:16:37.914Z,100594.25
2023-03-03T05:21:42.755Z,100601.25
2023-03-03T05:26:44.550Z,100597.25
2023-03-03T05:31:46.050Z,100596.56
2023-03-03T05:36:47.852Z,100589.09
2023-03-03T05:41:49.275Z,100611.06
2023-03-03T05:46:50.659Z,100598.84
2023-03-03T05:51:52.187Z,100615.44
2023-03-03T05:56:53.657Z,100601.34
2023-03-03T06:01:55.071Z,100619.72
2023-03-03T06:06:56.491Z,100627.09
2023-03-03T06:11:57.975Z,100639.34
2023-03-03T06:16:59.438Z,100638.13
2023-03-03T06:22:01.056Z,100639.47
2023-03-03T06:27:02.539Z,100657.13
2023-03-03T06:32:05.197Z,100661.13
2023-03-03T06:37:06.956Z,100667.09
2023-03-03T06:42:09.482Z,100674.84
2023-03-03T06:47:10.973Z,100670.81
2023-03-03T06:52:24.401Z,100687.59
2023-03-03T06:57:31.953Z,100692.59
2023-03-03T07:02:33.448Z,100709.47
2023-03-03T07:07:35.224Z,100708.16
2023-03-03T07:12:36.642Z,100717.38
2023-03-03T07:17:50.924Z,100724.59
2023-03-03T07:22:53.577Z,100721.66
2023-03-03T07:28:00.770Z,100720.38
2023-03-03T07:33:02.210Z,100749.78
2023-03-03T07:38:12.184Z,100746.25
2023-03-03T07:43:37.241Z,100754.56
2023-03-03T07:48:42.008Z,100715.09
2023-03-03T07:53:43.604Z,100778.81
2023-03-03T07:58:45.083Z,100755.28
2023-03-03T08:03:49.454Z,100776.66
2023-03-03T08:08:51.490Z,100775.53
2023-03-03T08:13:53.494Z,100772.13
2023-03-03T08:18:59.093Z,100779.66
2023-03-03T08:24:00.927Z,100764.97
2023-03-03T08:29:02.571Z,100770.56
2023-03-03T08:34:04.480Z,100777.19
2023-03-03T08:39:07.119Z,100773.09
2023-03-03T08:44:08.510Z,100791.59
2023-03-03T08:49:10.185Z,100772.66
2023-03-03T08:54:12.216Z,100792.97
2023-03-03T08:59:13.726Z,100789.09
2023-03-03T09:04:15.382Z,100790.94
2023-03-03T09:09:16.970Z,100784.78
2023-03-03T09:14:19.243Z,100770.72
2023-03-03T09:19:31.079Z,100796.34
2023-03-03T09:24:36.207Z,100800.97
2023-03-03T09:29:39.461Z,100801.56
2023-03-03T09:34:42.639Z,100804.34
2023-03-03T09:39:45.962Z,100802.88
2023-03-03T09:45:09.176Z,100806.94
2023-03-03T09:50:34.777Z,100806.47
2023-03-03T09:55:54.867Z,100809.09
2023-03-03T10:01:02.998Z,100803.97
2023-03-03T10:06:22.564Z,100811.84
2023-03-03T10:11:43.082Z,100813.66
2023-03-03T10:17:09.637Z,100820.47
2023-03-03T10:22:20.465Z,100826.00
2023-03-03T10:27:24.979Z,100832.75
2023-03-03T10:32:41.956Z,100838.38
2023-03-03T10:37:52.284Z,100808.69
2023-03-03T10:43:33.535Z,100826.44
2023-03-03T10:48:39.666Z,100837.22
2023-03-03T10:54:06.712Z,100825.50
2023-03-03T10:59:25.276Z,100825.81
2023-03-03T11:05:20.799Z,100822.91
2023-03-03T11:10:38.023Z,100828.00
2023-03-03T11:15:58.521Z,100819.44
2023-03-03T11:21:18.949Z,100823.53
2023-03-03T11:26:41.462Z,100817.81
2023-03-03T11:32:08.204Z,100808.75
2023-03-03T11:37:37.174Z,100795.91
2023-03-03T11:43:26.445Z,100789.41
2023-03-03T11:48:48.761Z,100783.19
2023-03-03T11:53:59.077Z,100776.91
2023-03-03T11:59:32.811Z,100778.94
2023-03-03T12:04:56.175Z,100769.59
2023-03-03T12:10:19.748Z,100771.38
2023-03-03T12:15:28.981Z,100759.88
2023-03-03T12:21:03.691Z,100745.31
2023-03-03T12:26:11.107Z,100729.94
2023-03-03T12:31:39.014Z,100731.78
2023-03-03T12:37:09.319Z,100726.03
2023-03-03T12:42:22.011Z,100720.94
2023-03-03T12:47:46.126Z,100718.63
2023-03-03T12:53:00.358Z,100721.09
2023-03-03T12:58:40.721Z,100719.94
2023-03-03T13:04:08.481Z,100709.63
2023-03-03T13:09:24.338Z,100703.06
2023-03-03T13:14:43.237Z,100691.53
2023-03-03T13:20:02.626Z,100685.91
2023-03-03T13:25:34.404Z,100688.06
2023-03-03T13:30:40.417Z,100684.72
2023-03-03T13:35:50.020Z,100681.88
2023-03-03T13:41:04.336Z,100680.59
2023-03-03T13:46:12.710Z,100674.09
2023-03-03T13:51:26.574Z,100671.19
2023-03-03T13:56:40.019Z,100670.56
2023-03-03T14:02:15.972Z,100656.63
2023-03-03T14:07:32.911Z,100663.19
2023-03-03T14:12:55.480Z,100660.69
2023-03-03T14:18:27.566Z,100649.97
2023-03-03T14:23:48.359Z,100647.91
2023-03-03T14:28:52.401Z,100645.38
2023-03-03T14:34:01.258Z,100644.19
2023-03-03T14:39:02.734Z,100634.44
2023-03-03T14:44:29.180Z,100639.50
2023-03-03T14:49:36.775Z,100642.34
2023-03-03T14:54:41.392Z,100636.00
2023-03-03T15:00:00.988Z,100637.53
2023-03-03T15:05:27.827Z,100635.09
2023-03-03T15:10:34.068Z,100621.22
2023-03-03T15:15:51.524Z,100629.31
2023-03-03T15:21:02.317Z,100635.88
2023-03-03T15:26:13.471Z,100634.44
2023-03-03T15:31:18.098Z,100642.94
2023-03-03T15:36:44.948Z,100622.31
2023-03-03T15:42:11.740Z,100643.19
2023-03-03T15:47:24.517Z,100636.41
2023-03-03T15:52:42.112Z,100638.56
2023-03-03T15:57:52.705Z,100639.03
2023-03-03T16:03:15.306Z,100633.38
2023-03-03T16:08:26.003Z,100639.94
2023-03-03T16:13:59.684Z,100637.06
2023-03-03T16:19:05.910Z,100648.91
2023-03-03T16:24:40.408Z,100641.72
2023-03-03T16:30:05.290Z,100647.50
2023-03-03T16:35:12.452Z,100663.00
2023-03-03T16:40:24.904Z,100658.88
2023-03-03T16:45:39.213Z,100663.56
2023-03-03T16:50:57.057Z,100668.38
2023-03-03T16:56:22.177Z,100678.63
2023-03-03T17:01:58.961Z,100672.38
2023-03-03T17:07:15.367Z,100678.31
2023-03-03T17:12:25.889Z,100690.94
2023-03-03T17:18:02.702Z,100694.22
2023-03-03T17:23:09.983Z,100694.78
2023-03-03T17:28:48.389Z,100703.66
2023-03-03T17:34:05.491Z,100714.53
2023-03-03T17:39:19.158Z,100720.59
2023-03-03T17:44:45.350Z,100721.50
2023-03-03T17:49:56.269Z,100736.78
2023-03-03T17:55:31.560Z,100740.38
2023-03-03T18:00:32.859Z,100742.03
2023-03-03T18:06:22.594Z,100749.41
2023-03-03T18:11:56.993Z,100757.22
2023-03-03T18:17:16.982Z,100757.28
2023-03-03T18:22:30.838Z,100757.28
2023-03-03T18:27:32.220Z,100774.41
2023-03-03T18:32:55.613Z,100776.97
2023-03-03T18:38:17.267Z,100770.72
2023-03-03T18:43:43.796Z,100783.91
2023-03-03T18:49:07.492Z,100787.66
2023-03-03T18:54:11.982Z,100780.25
2023-03-03T18:59:52.736Z,100801.25
2023-03-03T19:05:04.642Z,100812.59
2023-03-03T19:10:45.075Z,100816.72
2023-03-03T19:15:52.461Z,100817.44
2023-03-03T19:21:01.923Z,100818.81
2023-03-03T19:26:25.410Z,100829.88
2023-03-03T19:31:34.325Z,100837.31
2023-03-03T19:36:54.591Z,100836.31
2023-03-03T19:42:12.043Z,100822.97
2023-03-03T19:47:13.337Z,100829.19
2023-03-03T19:52:26.375Z,100828.25
2023-03-03T19:57:54.039Z,100823.59
2023-03-03T20:03:39.816Z,100835.09
2023-03-03T20:08:43.086Z,100832.50
2023-03-03T20:13:56.711Z,100835.91
2023-03-03T20:19:07.228Z,100833.59
2023-03-03T20:24:41.784Z,100842.53
2023-03-03T20:30:46.914Z,100834.69
2023-03-03T20:36:04.077Z,100846.72
2023-03-03T20:41:25.709Z,100866.72
2023-03-03T20:46:34.103Z,100866.31
2023-03-03T20:51:44.956Z,100857.03
2023-03-03T20:57:28.878Z,100845.69
2023-03-03T21:02:47.311Z,100873.69
2023-03-03T21:07:58.434Z,100872.13
2023-03-03T21:13:26.165Z,100864.34
2023-03-03T21:18:27.973Z,100869.03
2023-03-03T21:23:29.392Z,100875.06
2023-03-03T21:28:33.526Z,100864.91
2023-03-03T21:33:55.400Z,100868.38
2023-03-03T21:38:58.286Z,100875.91
2023-03-03T21:43:59.771Z,100865.81
2023-03-03T21:49:01.173Z,100875.50
2023-03-03T21:54:02.602Z,100875.81
2023-03-03T21:59:04.300Z,100874.38
2023-03-03T22:04:05.868Z,100884.69
2023-03-03T22:09:08.149Z,100892.59
2023-03-03T22:14:09.722Z,100885.69
2023-03-03T22:19:11.181Z,100898.47
2023-03-03T22:24:13.047Z,100889.97
2023-03-03T22:29:16.726Z,100902.09
2023-03-03T22:34:18.436Z,100882.00
2023-03-03T22:39:19.873Z,100894.91
2023-03-03T22:44:21.333Z,100900.88
2023-03-03T22:49:22.687Z,100913.16
2023-03-03T22:54:24.903Z,100905.75
2023-03-03T22:59:26.308Z,100901.81
2023-03-03T23:04:27.853Z,100904.53
2023-03-03T23:09:29.220Z,100894.19
2023-03-03T23:14:30.704Z,100894.63
2023-03-03T23:19:32.069Z,100904.47
2023-03-03T23:24:33.589Z,100908.78
2023-03-03T23:29:35.610Z,100881.72
2023-03-03T23:34:37.021Z,100904.91
2023-03-03T23:39:40.498Z,100903.16
2023-03-03T23:44:41.933Z,100897.41
2023-03-03T23:49:43.322Z,100913.06
2023-03-03T23:54:45.296Z,100913.16
2023-03-03T23:59:46.801Z,100914.00
